Aurora — WDE6368 — position and weather

sailwx.info

Track history (hours):
 
Tides and Currents Weather Stations Pressure Air Temp Water Temp Dewpoint Dewpoint Depression Visibility Wind Speed Wind Dir Waves Ship Positions

Aurora

Owner: Boston Harbor Cruises, Boston, MA. More information available from US FCC via Universal Licensing System and Coast Guard Vessel Documentation Center.

Last reported at 2018-Aug-19 17:20 UTC. Time now 2018-Aug-19 22:54 UTC.
Position N 42°15' W 070°55'.

Length 37 m.

Type: High speed craft. MMSI: 367379320.

Date/timePositionNaut miles runAvg speedWind from/ knotsBaromVisibWave heightAir tempDewpointWater temp
2018-Aug-19 17:20N 42°15' W 070°55'410.3
2018-Aug-19 16:58N 42°18' W 070°58'612.2
2018-Aug-19 16:30N 42°23' W 071°03'0 0.2
2018-Aug-19 16:00N 42°23' W 071°03'0 0.0
2018-Aug-19 15:30N 42°23' W 071°03'0 0.0
2018-Aug-19 15:00N 42°23' W 071°03'0 0.0
2018-Aug-19 14:31N 42°23' W 071°03'1 2.6
2018-Aug-19 14:00N 42°22' W 071°03'0 0.4
2018-Aug-19 13:30N 42°22' W 071°03'1 1.3
2018-Aug-19 13:00N 42°22' W 071°02'714.3
2018-Aug-19 12:30N 42°16' W 070°56'1 1.9
2018-Aug-19 12:00N 42°15' W 070°55'1 0.1
2018-Aug-19 00:06N 42°16' W 070°55'324.6
2018-Aug-18 23:59N 42°18' W 070°58'510.8
2018-Aug-18 23:30N 42°22' W 071°03'1020.0
2018-Aug-18 23:01N 42°19' W 070°50'1631.6
2018-Aug-18 22:30N 42°12' W 070°30'816.1
2018-Aug-18 22:00N 42°10' W 070°20'0 0.5
2018-Aug-18 21:30N 42°10' W 070°19'6 7.0
2018-Aug-18 20:36N 42°12' W 070°27'332.0
2018-Aug-18 20:30N 42°13' W 070°31'1631.4
2018-Aug-18 20:00N 42°19' W 070°51'918.4
2018-Aug-18 19:30N 42°22' W 071°03'0 0.0
2018-Aug-18 19:00N 42°22' W 071°03'0 0.9
2018-Aug-18 18:30N 42°21' W 071°02'1426.9
2018-Aug-18 18:00N 42°17' W 070°45'13 6.9
2018-Aug-18 16:07N 42°13' W 070°28'330.1
2018-Aug-18 16:00N 42°15' W 070°33'1530.1
2018-Aug-18 15:30N 42°19' W 070°52'816.7
2018-Aug-18 15:00N 42°22' W 071°03'0 0.0
2018-Aug-18 14:30N 42°22' W 071°03'1 1.3
2018-Aug-18 14:01N 42°22' W 071°02'510.0
2018-Aug-18 13:30N 42°18' W 070°58'3 4.8
2018-Aug-18 12:50N 42°15' W 070°55'1 2.4
2018-Aug-18 12:30N 42°16' W 070°56'1 1.6
2018-Aug-18 12:00N 42°15' W 070°55'0 0.0
2018-Aug-18 11:30N 42°15' W 070°55'1 0.1
2018-Aug-18 00:52N 42°16' W 070°56'821.8
2018-Aug-18 00:30N 42°21' W 071°03'2 3.1
2018-Aug-18 00:00N 42°21' W 071°01'714.2
2018-Aug-17 23:31N 42°15' W 070°55'816.7
2018-Aug-17 23:01N 42°21' W 071°03'3 5.3
2018-Aug-17 22:30N 42°20' W 070°60'611.7
2018-Aug-17 22:01N 42°15' W 070°55'612.5
2018-Aug-17 21:30N 42°20' W 071°00'2 4.4
2018-Aug-17 21:00N 42°21' W 071°03'0 0.6
2018-Aug-17 20:30N 42°22' W 071°03'0 0.0
2018-Aug-17 20:00N 42°22' W 071°03'0 0.0
2018-Aug-17 19:30N 42°22' W 071°03'816.2
2018-Aug-17 19:01N 42°19' W 070°53'1631.6
2018-Aug-17 18:31N 42°14' W 070°32'1019.8
2018-Aug-17 18:01N 42°10' W 070°20'1 1.7
2018-Aug-17 17:28N 42°11' W 070°20'918.9
2018-Aug-17 17:01N 42°14' W 070°31'1530.4
2018-Aug-17 16:31N 42°19' W 070°51'1019.1
2018-Aug-17 16:00N 42°22' W 071°03'0 0.2
2018-Aug-17 15:30N 42°22' W 071°03'0 0.0
2018-Aug-17 15:00N 42°22' W 071°03'1 0.6
2018-Aug-17 14:01N 42°22' W 071°02'4 7.4
2018-Aug-17 13:30N 42°19' W 070°59'5 8.7
2018-Aug-17 12:59N 42°15' W 070°55'817.3
2018-Aug-17 12:30N 42°21' W 071°03'4 7.9
2018-Aug-17 12:00N 42°19' W 070°59'4 8.9
2018-Aug-17 11:30N 42°15' W 070°55'612.7
2018-Aug-17 11:01N 42°20' W 071°00'2 4.4
2018-Aug-17 10:30N 42°21' W 071°03'816.7
2018-Aug-17 10:00N 42°15' W 070°55'0 0.0
2018-Aug-17 01:02N 42°15' W 070°55'0 2.3
2018-Aug-17 01:00N 42°15' W 070°55'816.8
2018-Aug-17 00:30N 42°21' W 071°03'2 4.4
2018-Aug-17 00:00N 42°20' W 071°00'612.5
2018-Aug-16 23:30N 42°15' W 070°55'816.9
2018-Aug-16 23:00N 42°21' W 071°03'2 4.1
2018-Aug-16 22:30N 42°20' W 071°00'612.5
2018-Aug-16 21:59N 42°15' W 070°55'613.3
2018-Aug-16 21:30N 42°20' W 071°01'2 3.7
2018-Aug-16 21:00N 42°21' W 071°03'0 0.8
2018-Aug-16 20:30N 42°22' W 071°02'1 1.3
2018-Aug-16 20:00N 42°22' W 071°03'4 8.3
2018-Aug-16 19:30N 42°20' W 070°58'1529.1
2018-Aug-16 19:00N 42°16' W 070°38'11 6.0
2018-Aug-16 17:12N 42°14' W 070°24'629.6
2018-Aug-16 17:00N 42°15' W 070°31'1529.4
2018-Aug-16 16:31N 42°19' W 070°51'1019.2
2018-Aug-16 16:00N 42°22' W 071°03'0 0.0
2018-Aug-16 15:30N 42°22' W 071°03'0 0.2
2018-Aug-16 15:01N 42°22' W 071°03'0 0.0
2018-Aug-16 14:30N 42°22' W 071°03'0 0.0
2018-Aug-16 14:00N 42°22' W 071°03'4 8.4
2018-Aug-16 13:31N 42°19' W 070°59'4 8.3
2018-Aug-16 12:59N 42°15' W 070°55'817.5
2018-Aug-16 12:30N 42°21' W 071°03'4 8.5
2018-Aug-16 12:00N 42°18' W 070°59'4 6.6
2018-Aug-16 11:23N 42°15' W 070°55'616.6
2018-Aug-16 11:01N 42°20' W 071°00'2 4.5
2018-Aug-16 10:30N 42°21' W 071°03'815.6
2018-Aug-16 09:58N 42°15' W 070°55'0 0.0
2018-Aug-16 01:09N 42°15' W 070°55'1 4.1
2018-Aug-16 01:00N 42°16' W 070°55'815.8
2018-Aug-16 00:30N 42°21' W 071°03'5 9.6
2018-Aug-16 00:01N 42°18' W 070°58'3 6.8
2018-Aug-15 23:30N 42°16' W 070°55'816.6
2018-Aug-15 23:00N 42°21' W 071°03'2 4.2
2018-Aug-15 22:30N 42°20' W 071°00'612.9
2018-Aug-15 22:00N 42°15' W 070°55'714.5
2018-Aug-15 21:30N 42°21' W 071°01'1 2.1
2018-Aug-15 21:00N 42°22' W 071°02'1 1.2
2018-Aug-15 20:30N 42°22' W 071°03'0 0.1
2018-Aug-15 20:00N 42°22' W 071°03'1 1.2
2018-Aug-15 19:31N 42°22' W 071°02'1224.6
2018-Aug-15 19:00N 42°18' W 070°46'8 3.8
2018-Aug-15 16:52N 42°15' W 070°36'1130.6
2018-Aug-15 16:31N 42°19' W 070°50'1019.5
2018-Aug-15 16:00N 42°22' W 071°03'0 0.2
2018-Aug-15 15:31N 42°22' W 071°03'0 0.0
2018-Aug-15 15:00N 42°22' W 071°03'0 0.0
2018-Aug-15 14:30N 42°22' W 071°03'0 0.7
2018-Aug-15 14:00N 42°21' W 071°02'5 9.2
2018-Aug-15 13:30N 42°18' W 070°58'3 6.3
2018-Aug-15 13:00N 42°16' W 070°55'815.8
2018-Aug-15 12:30N 42°21' W 071°03'5 9.3
2018-Aug-15 12:00N 42°18' W 070°58'4 7.5
2018-Aug-15 11:30N 42°15' W 070°55'713.5
2018-Aug-15 11:00N 42°21' W 071°01'2 3.2
2018-Aug-15 10:30N 42°21' W 071°03'815.2
2018-Aug-15 09:58N 42°15' W 070°55'0 0.0
2018-Aug-15 09:30N 42°15' W 070°55'1 0.1
2018-Aug-15 00:54N 42°16' W 070°55'819.4
2018-Aug-15 00:30N 42°21' W 071°03'2 4.1
2018-Aug-15 00:00N 42°20' W 071°01'612.8
2018-Aug-14 23:30N 42°15' W 070°55'816.7
2018-Aug-14 23:00N 42°21' W 071°03'1 1.8
2018-Aug-14 22:30N 42°21' W 071°02'814.7
2018-Aug-14 21:59N 42°15' W 070°55'612.8
2018-Aug-14 21:31N 42°20' W 071°00'2 4.7
2018-Aug-14 21:00N 42°21' W 071°03'0 0.4
2018-Aug-14 20:30N 42°22' W 071°03'0 0.0
2018-Aug-14 19:58N 42°22' W 071°03'0 0.0
2018-Aug-14 19:30N 42°22' W 071°03'5 9.5
2018-Aug-14 19:00N 42°20' W 070°57'1631.3
2018-Aug-14 18:30N 42°15' W 070°37'3 2.1
2018-Aug-14 16:57N 42°13' W 070°33'1430.0
2018-Aug-14 16:30N 42°18' W 070°50'1020.8
2018-Aug-14 16:00N 42°22' W 071°03'0 0.0
2018-Aug-14 15:30N 42°22' W 071°03'0 0.2
2018-Aug-14 15:01N 42°22' W 071°03'0 0.0
2018-Aug-14 14:30N 42°22' W 071°03'1 1.1
2018-Aug-14 14:00N 42°22' W 071°02'4 7.7
2018-Aug-14 13:30N 42°19' W 070°59'4 8.3
2018-Aug-14 12:59N 42°15' W 070°55'817.2
2018-Aug-14 12:30N 42°21' W 071°03'5 9.0
2018-Aug-14 12:01N 42°18' W 070°58'4 6.8
2018-Aug-14 11:26N 42°15' W 070°55'614.9
2018-Aug-14 11:00N 42°20' W 071°01'2 4.1
2018-Aug-14 10:30N 42°21' W 071°03'816.8
2018-Aug-14 10:01N 42°15' W 070°55'0 0.0
2018-Aug-14 01:04N 42°15' W 070°55'0 5.1
2018-Aug-14 01:00N 42°16' W 070°55'816.5
2018-Aug-14 00:30N 42°21' W 071°03'3 5.3
2018-Aug-14 00:00N 42°20' W 070°60'611.3
2018-Aug-13 23:30N 42°15' W 070°55'816.6
2018-Aug-13 23:00N 42°21' W 071°03'2 4.1
2018-Aug-13 22:31N 42°20' W 071°01'612.8
2018-Aug-13 22:00N 42°15' W 070°55'713.6
2018-Aug-13 21:30N 42°21' W 071°01'2 3.2
2018-Aug-13 21:00N 42°21' W 071°03'0 0.7
2018-Aug-13 20:30N 42°22' W 071°03'0 0.0
2018-Aug-13 20:00N 42°22' W 071°03'0 0.1
2018-Aug-13 19:30N 42°22' W 071°03'714.7
2018-Aug-13 19:00N 42°19' W 070°54'1529.5
2018-Aug-13 18:30N 42°14' W 070°35'6 4.7
2018-Aug-13 17:08N 42°13' W 070°26'431.6
2018-Aug-13 17:01N 42°14' W 070°31'1631.4
2018-Aug-13 16:30N 42°19' W 070°52'917.8
2018-Aug-13 16:00N 42°22' W 071°03'0 0.2
2018-Aug-13 15:30N 42°22' W 071°03'0 0.3
2018-Aug-13 15:01N 42°22' W 071°03'0 0.6
2018-Aug-13 14:29N 42°21' W 071°03'0 0.2
2018-Aug-13 14:00N 42°21' W 071°03'5 9.4
2018-Aug-13 13:30N 42°18' W 070°58'3 5.9
2018-Aug-13 13:00N 42°16' W 070°55'815.5
2018-Aug-13 12:30N 42°21' W 071°03'510.1
2018-Aug-13 12:00N 42°18' W 070°58'3 4.4
2018-Aug-13 11:20N 42°16' W 070°55'721.5
2018-Aug-13 11:00N 42°21' W 071°02'1 2.1
2018-Aug-13 10:31N 42°21' W 071°03'0 0.0
2018-Aug-12 22:26N 42°22' W 071°03'0 0.1
2018-Aug-12 22:00N 42°22' W 071°03'1121.7
2018-Aug-12 21:30N 42°18' W 070°49'1326.0
2018-Aug-12 21:00N 42°14' W 070°32'815.0
2018-Aug-12 20:29N 42°11' W 070°22'0 0.9
2018-Aug-12 19:59N 42°11' W 070°22'816.4
2018-Aug-12 19:30N 42°13' W 070°32'1631.7
2018-Aug-12 19:00N 42°19' W 070°52'816.7
2018-Aug-12 18:30N 42°22' W 071°03'0 0.0
2018-Aug-12 18:00N 42°22' W 071°03'1 1.8
2018-Aug-12 17:30N 42°21' W 071°02'1427.7
2018-Aug-12 17:00N 42°17' W 070°44'1620.5
2018-Aug-12 16:13N 42°11' W 070°24'0 0.6
2018-Aug-12 15:48N 42°11' W 070°24'910.5
2018-Aug-12 14:56N 42°15' W 070°35'1330.1
2018-Aug-12 14:30N 42°19' W 070°52'917.3
2018-Aug-12 14:00N 42°22' W 071°03'0 0.0
2018-Aug-12 13:30N 42°22' W 071°03'1 1.3
2018-Aug-12 13:00N 42°22' W 071°02'612.4
2018-Aug-12 12:31N 42°17' W 070°57'2 4.3
2018-Aug-12 12:00N 42°15' W 070°55'1 0.1
2018-Aug-12 01:57N 42°16' W 070°55'818.4
2018-Aug-12 01:30N 42°22' W 071°03'917.1
2018-Aug-12 01:00N 42°15' W 070°55'0 0.0
2018-Aug-12 00:28N 42°15' W 070°55'816.3
2018-Aug-12 00:00N 42°21' W 071°02'1 2.3
2018-Aug-11 23:30N 42°22' W 071°03'1122.8
2018-Aug-11 23:00N 42°18' W 070°48'1932.7
2018-Aug-11 22:25N 42°11' W 070°24'2 5.0
2018-Aug-11 22:00N 42°11' W 070°21'1 1.6
2018-Aug-11 21:27N 42°11' W 070°20'1 1.3
2018-Aug-11 20:52N 42°10' W 070°21'718.7
2018-Aug-11 20:30N 42°13' W 070°29'1631.9
2018-Aug-11 20:00N 42°18' W 070°49'1121.0
2018-Aug-11 19:30N 42°22' W 071°03'0 0.0
2018-Aug-11 19:00N 42°22' W 071°03'1 2.1
2018-Aug-11 18:30N 42°21' W 071°02'1730.4
2018-Aug-11 17:58N 42°16' W 070°40'1429.8
2018-Aug-11 17:30N 42°12' W 070°23'6 4.5
2018-Aug-11 16:05N 42°13' W 070°31'230.4
2018-Aug-11 16:00N 42°14' W 070°34'1529.9
2018-Aug-11 15:31N 42°19' W 070°53'815.8
2018-Aug-11 15:00N 42°22' W 071°03'1 1.3
2018-Aug-11 14:30N 42°22' W 071°02'0 0.3
2018-Aug-11 14:00N 42°22' W 071°02'714.1
2018-Aug-11 13:30N 42°16' W 070°56'1 1.9
2018-Aug-11 12:56N 42°15' W 070°55'0 0.0
2018-Aug-11 12:29N 42°15' W 070°55'1 0.1
2018-Aug-11 00:52N 42°16' W 070°55'822.0
2018-Aug-11 00:30N 42°21' W 071°03'2 4.5
2018-Aug-11 00:01N 42°20' W 071°00'612.3
2018-Aug-10 23:30N 42°15' W 070°55'817.1
2018-Aug-10 23:01N 42°21' W 071°03'1 2.6
2018-Aug-10 22:30N 42°21' W 071°01'714.4
2018-Aug-10 22:00N 42°15' W 070°55'613.0
2018-Aug-10 21:30N 42°20' W 071°00'2 4.0
2018-Aug-10 21:00N 42°21' W 071°03'0 0.6
2018-Aug-10 20:30N 42°22' W 071°03'0 0.1
2018-Aug-10 20:01N 42°22' W 071°03'0 0.0
2018-Aug-10 19:30N 42°22' W 071°03'1120.5
2018-Aug-10 18:59N 42°26' W 070°50'1429.8
2018-Aug-10 18:30N 42°35' W 070°35'714.0
2018-Aug-10 18:00N 42°40' W 070°28'815.9
2018-Aug-10 17:30N 42°32' W 070°29'1122.2
2018-Aug-10 17:00N 42°22' W 070°36'1224.3
2018-Aug-10 16:30N 42°19' W 070°52'817.0
2018-Aug-10 16:00N 42°22' W 071°03'0 0.2
2018-Aug-10 15:30N 42°22' W 071°03'0 0.8
2018-Aug-10 15:01N 42°22' W 071°02'0 0.9
2018-Aug-10 14:30N 42°22' W 071°03'0 0.1
2018-Aug-10 14:00N 42°22' W 071°03'4 9.0
2018-Aug-10 13:31N 42°18' W 070°59'4 8.1
2018-Aug-10 13:01N 42°15' W 070°55'816.4
2018-Aug-10 12:30N 42°21' W 071°03'5 9.6
2018-Aug-10 12:00N 42°18' W 070°58'4 6.5
2018-Aug-10 11:27N 42°15' W 070°55'511.9
2018-Aug-10 11:00N 42°19' W 070°60'3 6.5
2018-Aug-10 10:30N 42°21' W 071°03'816.7
2018-Aug-10 10:00N 42°15' W 070°55'0 0.0
2018-Aug-10 01:02N 42°15' W 070°55'0 6.7
2018-Aug-10 01:00N 42°16' W 070°55'816.6
2018-Aug-10 00:30N 42°21' W 071°03'2 4.5
2018-Aug-10 00:00N 42°20' W 071°00'612.6
2018-Aug-09 23:30N 42°15' W 070°55'816.9
2018-Aug-09 23:00N 42°21' W 071°03'2 4.0
2018-Aug-09 22:31N 42°21' W 071°01'710.8
2018-Aug-09 21:54N 42°15' W 070°55'615.5
2018-Aug-09 21:30N 42°20' W 071°00'2 4.5
2018-Aug-09 21:00N 42°21' W 071°03'0 0.9
2018-Aug-09 20:30N 42°22' W 071°02'0 0.2
2018-Aug-09 20:01N 42°22' W 071°02'0 0.5
2018-Aug-09 19:30N 42°22' W 071°03'1326.1
2018-Aug-09 19:00N 42°18' W 070°46'1926.5
2018-Aug-09 18:18N 42°12' W 070°22'2 2.1
2018-Aug-09 17:29N 42°12' W 070°24'  
Track history (hours):
 
Tides and Currents Weather Stations Pressure Air Temp Water Temp Dewpoint Dewpoint Depression Visibility Wind Speed Wind Dir Waves Ship Positions

Aurora

Owner: Boston Harbor Cruises, Boston, MA. More information available from US FCC via Universal Licensing System and Coast Guard Vessel Documentation Center.

Last reported at 2018-Aug-19 17:20 UTC. Time now 2018-Aug-19 22:54 UTC.
Position N 42°15' W 070°55'.

Length 37 m.

Type: High speed craft. MMSI: 367379320.

Date/timePositionNaut miles runAvg speedWind from/ knotsBaromVisibWave heightAir tempDewpointWater temp
2018-Aug-19 17:20N 42°15' W 070°55'410.3
2018-Aug-19 16:58N 42°18' W 070°58'612.2
2018-Aug-19 16:30N 42°23' W 071°03'0 0.2
2018-Aug-19 16:00N 42°23' W 071°03'0 0.0
2018-Aug-19 15:30N 42°23' W 071°03'0 0.0
2018-Aug-19 15:00N 42°23' W 071°03'0 0.0
2018-Aug-19 14:31N 42°23' W 071°03'1 2.6
2018-Aug-19 14:00N 42°22' W 071°03'0 0.4
2018-Aug-19 13:30N 42°22' W 071°03'1 1.3
2018-Aug-19 13:00N 42°22' W 071°02'714.3
2018-Aug-19 12:30N 42°16' W 070°56'1 1.9
2018-Aug-19 12:00N 42°15' W 070°55'1 0.1
2018-Aug-19 00:06N 42°16' W 070°55'324.6
2018-Aug-18 23:59N 42°18' W 070°58'510.8
2018-Aug-18 23:30N 42°22' W 071°03'1020.0
2018-Aug-18 23:01N 42°19' W 070°50'1631.6
2018-Aug-18 22:30N 42°12' W 070°30'816.1
2018-Aug-18 22:00N 42°10' W 070°20'0 0.5
2018-Aug-18 21:30N 42°10' W 070°19'6 7.0
2018-Aug-18 20:36N 42°12' W 070°27'332.0
2018-Aug-18 20:30N 42°13' W 070°31'1631.4
2018-Aug-18 20:00N 42°19' W 070°51'918.4
2018-Aug-18 19:30N 42°22' W 071°03'0 0.0
2018-Aug-18 19:00N 42°22' W 071°03'0 0.9
2018-Aug-18 18:30N 42°21' W 071°02'1426.9
2018-Aug-18 18:00N 42°17' W 070°45'13 6.9
2018-Aug-18 16:07N 42°13' W 070°28'330.1
2018-Aug-18 16:00N 42°15' W 070°33'1530.1
2018-Aug-18 15:30N 42°19' W 070°52'816.7
2018-Aug-18 15:00N 42°22' W 071°03'0 0.0
2018-Aug-18 14:30N 42°22' W 071°03'1 1.3
2018-Aug-18 14:01N 42°22' W 071°02'510.0
2018-Aug-18 13:30N 42°18' W 070°58'3 4.8
2018-Aug-18 12:50N 42°15' W 070°55'1 2.4
2018-Aug-18 12:30N 42°16' W 070°56'1 1.6
2018-Aug-18 12:00N 42°15' W 070°55'0 0.0
2018-Aug-18 11:30N 42°15' W 070°55'1 0.1
2018-Aug-18 00:52N 42°16' W 070°56'821.8
2018-Aug-18 00:30N 42°21' W 071°03'2 3.1
2018-Aug-18 00:00N 42°21' W 071°01'714.2
2018-Aug-17 23:31N 42°15' W 070°55'816.7
2018-Aug-17 23:01N 42°21' W 071°03'3 5.3
2018-Aug-17 22:30N 42°20' W 070°60'611.7
2018-Aug-17 22:01N 42°15' W 070°55'612.5
2018-Aug-17 21:30N 42°20' W 071°00'2 4.4
2018-Aug-17 21:00N 42°21' W 071°03'0 0.6
2018-Aug-17 20:30N 42°22' W 071°03'0 0.0
2018-Aug-17 20:00N 42°22' W 071°03'0 0.0
2018-Aug-17 19:30N 42°22' W 071°03'816.2
2018-Aug-17 19:01N 42°19' W 070°53'1631.6
2018-Aug-17 18:31N 42°14' W 070°32'1019.8
2018-Aug-17 18:01N 42°10' W 070°20'1 1.7
2018-Aug-17 17:28N 42°11' W 070°20'918.9
2018-Aug-17 17:01N 42°14' W 070°31'1530.4
2018-Aug-17 16:31N 42°19' W 070°51'1019.1
2018-Aug-17 16:00N 42°22' W 071°03'0 0.2
2018-Aug-17 15:30N 42°22' W 071°03'0 0.0
2018-Aug-17 15:00N 42°22' W 071°03'1 0.6
2018-Aug-17 14:01N 42°22' W 071°02'4 7.4
2018-Aug-17 13:30N 42°19' W 070°59'5 8.7
2018-Aug-17 12:59N 42°15' W 070°55'817.3
2018-Aug-17 12:30N 42°21' W 071°03'4 7.9
2018-Aug-17 12:00N 42°19' W 070°59'4 8.9
2018-Aug-17 11:30N 42°15' W 070°55'612.7
2018-Aug-17 11:01N 42°20' W 071°00'2 4.4
2018-Aug-17 10:30N 42°21' W 071°03'816.7
2018-Aug-17 10:00N 42°15' W 070°55'0 0.0
2018-Aug-17 01:02N 42°15' W 070°55'0 2.3
2018-Aug-17 01:00N 42°15' W 070°55'816.8
2018-Aug-17 00:30N 42°21' W 071°03'2 4.4
2018-Aug-17 00:00N 42°20' W 071°00'612.5
2018-Aug-16 23:30N 42°15' W 070°55'816.9
2018-Aug-16 23:00N 42°21' W 071°03'2 4.1
2018-Aug-16 22:30N 42°20' W 071°00'612.5
2018-Aug-16 21:59N 42°15' W 070°55'613.3
2018-Aug-16 21:30N 42°20' W 071°01'2 3.7
2018-Aug-16 21:00N 42°21' W 071°03'0 0.8
2018-Aug-16 20:30N 42°22' W 071°02'1 1.3
2018-Aug-16 20:00N 42°22' W 071°03'4 8.3
2018-Aug-16 19:30N 42°20' W 070°58'1529.1
2018-Aug-16 19:00N 42°16' W 070°38'11 6.0
2018-Aug-16 17:12N 42°14' W 070°24'629.6
2018-Aug-16 17:00N 42°15' W 070°31'1529.4
2018-Aug-16 16:31N 42°19' W 070°51'1019.2
2018-Aug-16 16:00N 42°22' W 071°03'0 0.0
2018-Aug-16 15:30N 42°22' W 071°03'0 0.2
2018-Aug-16 15:01N 42°22' W 071°03'0 0.0
2018-Aug-16 14:30N 42°22' W 071°03'0 0.0
2018-Aug-16 14:00N 42°22' W 071°03'4 8.4
2018-Aug-16 13:31N 42°19' W 070°59'4 8.3
2018-Aug-16 12:59N 42°15' W 070°55'817.5
2018-Aug-16 12:30N 42°21' W 071°03'4 8.5
2018-Aug-16 12:00N 42°18' W 070°59'4 6.6
2018-Aug-16 11:23N 42°15' W 070°55'616.6
2018-Aug-16 11:01N 42°20' W 071°00'2 4.5
2018-Aug-16 10:30N 42°21' W 071°03'815.6
2018-Aug-16 09:58N 42°15' W 070°55'0 0.0
2018-Aug-16 01:09N 42°15' W 070°55'1 4.1
2018-Aug-16 01:00N 42°16' W 070°55'815.8
2018-Aug-16 00:30N 42°21' W 071°03'5 9.6
2018-Aug-16 00:01N 42°18' W 070°58'3 6.8
2018-Aug-15 23:30N 42°16' W 070°55'816.6
2018-Aug-15 23:00N 42°21' W 071°03'2 4.2
2018-Aug-15 22:30N 42°20' W 071°00'612.9
2018-Aug-15 22:00N 42°15' W 070°55'714.5
2018-Aug-15 21:30N 42°21' W 071°01'1 2.1
2018-Aug-15 21:00N 42°22' W 071°02'1 1.2
2018-Aug-15 20:30N 42°22' W 071°03'0 0.1
2018-Aug-15 20:00N 42°22' W 071°03'1 1.2
2018-Aug-15 19:31N 42°22' W 071°02'1224.6
2018-Aug-15 19:00N 42°18' W 070°46'8 3.8
2018-Aug-15 16:52N 42°15' W 070°36'1130.6
2018-Aug-15 16:31N 42°19' W 070°50'1019.5
2018-Aug-15 16:00N 42°22' W 071°03'0 0.2
2018-Aug-15 15:31N 42°22' W 071°03'0 0.0
2018-Aug-15 15:00N 42°22' W 071°03'0 0.0
2018-Aug-15 14:30N 42°22' W 071°03'0 0.7
2018-Aug-15 14:00N 42°21' W 071°02'5 9.2
2018-Aug-15 13:30N 42°18' W 070°58'3 6.3
2018-Aug-15 13:00N 42°16' W 070°55'815.8
2018-Aug-15 12:30N 42°21' W 071°03'5 9.3
2018-Aug-15 12:00N 42°18' W 070°58'4 7.5
2018-Aug-15 11:30N 42°15' W 070°55'713.5
2018-Aug-15 11:00N 42°21' W 071°01'2 3.2
2018-Aug-15 10:30N 42°21' W 071°03'815.2
2018-Aug-15 09:58N 42°15' W 070°55'0 0.0
2018-Aug-15 09:30N 42°15' W 070°55'1 0.1
2018-Aug-15 00:54N 42°16' W 070°55'819.4
2018-Aug-15 00:30N 42°21' W 071°03'2 4.1
2018-Aug-15 00:00N 42°20' W 071°01'612.8
2018-Aug-14 23:30N 42°15' W 070°55'816.7
2018-Aug-14 23:00N 42°21' W 071°03'1 1.8
2018-Aug-14 22:30N 42°21' W 071°02'814.7
2018-Aug-14 21:59N 42°15' W 070°55'612.8
2018-Aug-14 21:31N 42°20' W 071°00'2 4.7
2018-Aug-14 21:00N 42°21' W 071°03'0 0.4
2018-Aug-14 20:30N 42°22' W 071°03'0 0.0
2018-Aug-14 19:58N 42°22' W 071°03'0 0.0
2018-Aug-14 19:30N 42°22' W 071°03'5 9.5
2018-Aug-14 19:00N 42°20' W 070°57'1631.3
2018-Aug-14 18:30N 42°15' W 070°37'3 2.1
2018-Aug-14 16:57N 42°13' W 070°33'1430.0
2018-Aug-14 16:30N 42°18' W 070°50'1020.8
2018-Aug-14 16:00N 42°22' W 071°03'0 0.0
2018-Aug-14 15:30N 42°22' W 071°03'0 0.2
2018-Aug-14 15:01N 42°22' W 071°03'0 0.0
2018-Aug-14 14:30N 42°22' W 071°03'1 1.1
2018-Aug-14 14:00N 42°22' W 071°02'4 7.7
2018-Aug-14 13:30N 42°19' W 070°59'4 8.3
2018-Aug-14 12:59N 42°15' W 070°55'817.2
2018-Aug-14 12:30N 42°21' W 071°03'5 9.0
2018-Aug-14 12:01N 42°18' W 070°58'4 6.8
2018-Aug-14 11:26N 42°15' W 070°55'614.9
2018-Aug-14 11:00N 42°20' W 071°01'2 4.1
2018-Aug-14 10:30N 42°21' W 071°03'816.8
2018-Aug-14 10:01N 42°15' W 070°55'0 0.0
2018-Aug-14 01:04N 42°15' W 070°55'0 5.1
2018-Aug-14 01:00N 42°16' W 070°55'816.5
2018-Aug-14 00:30N 42°21' W 071°03'3 5.3
2018-Aug-14 00:00N 42°20' W 070°60'611.3
2018-Aug-13 23:30N 42°15' W 070°55'816.6
2018-Aug-13 23:00N 42°21' W 071°03'2 4.1
2018-Aug-13 22:31N 42°20' W 071°01'612.8
2018-Aug-13 22:00N 42°15' W 070°55'713.6
2018-Aug-13 21:30N 42°21' W 071°01'2 3.2
2018-Aug-13 21:00N 42°21' W 071°03'0 0.7
2018-Aug-13 20:30N 42°22' W 071°03'0 0.0
2018-Aug-13 20:00N 42°22' W 071°03'0 0.1
2018-Aug-13 19:30N 42°22' W 071°03'714.7
2018-Aug-13 19:00N 42°19' W 070°54'1529.5
2018-Aug-13 18:30N 42°14' W 070°35'6 4.7
2018-Aug-13 17:08N 42°13' W 070°26'431.6
2018-Aug-13 17:01N 42°14' W 070°31'1631.4
2018-Aug-13 16:30N 42°19' W 070°52'917.8
2018-Aug-13 16:00N 42°22' W 071°03'0 0.2
2018-Aug-13 15:30N 42°22' W 071°03'0 0.3
2018-Aug-13 15:01N 42°22' W 071°03'0 0.6
2018-Aug-13 14:29N 42°21' W 071°03'0 0.2
2018-Aug-13 14:00N 42°21' W 071°03'5 9.4
2018-Aug-13 13:30N 42°18' W 070°58'3 5.9
2018-Aug-13 13:00N 42°16' W 070°55'815.5
2018-Aug-13 12:30N 42°21' W 071°03'510.1
2018-Aug-13 12:00N 42°18' W 070°58'3 4.4
2018-Aug-13 11:20N 42°16' W 070°55'721.5
2018-Aug-13 11:00N 42°21' W 071°02'1 2.1
2018-Aug-13 10:31N 42°21' W 071°03'0 0.0
2018-Aug-12 22:26N 42°22' W 071°03'0 0.1
2018-Aug-12 22:00N 42°22' W 071°03'1121.7
2018-Aug-12 21:30N 42°18' W 070°49'1326.0
2018-Aug-12 21:00N 42°14' W 070°32'815.0
2018-Aug-12 20:29N 42°11' W 070°22'0 0.9
2018-Aug-12 19:59N 42°11' W 070°22'816.4
2018-Aug-12 19:30N 42°13' W 070°32'1631.7
2018-Aug-12 19:00N 42°19' W 070°52'816.7
2018-Aug-12 18:30N 42°22' W 071°03'0 0.0
2018-Aug-12 18:00N 42°22' W 071°03'1 1.8
2018-Aug-12 17:30N 42°21' W 071°02'1427.7
2018-Aug-12 17:00N 42°17' W 070°44'1620.5
2018-Aug-12 16:13N 42°11' W 070°24'0 0.6
2018-Aug-12 15:48N 42°11' W 070°24'910.5
2018-Aug-12 14:56N 42°15' W 070°35'1330.1
2018-Aug-12 14:30N 42°19' W 070°52'917.3
2018-Aug-12 14:00N 42°22' W 071°03'0 0.0
2018-Aug-12 13:30N 42°22' W 071°03'1 1.3
2018-Aug-12 13:00N 42°22' W 071°02'612.4
2018-Aug-12 12:31N 42°17' W 070°57'2 4.3
2018-Aug-12 12:00N 42°15' W 070°55'1 0.1
2018-Aug-12 01:57N 42°16' W 070°55'818.4
2018-Aug-12 01:30N 42°22' W 071°03'917.1
2018-Aug-12 01:00N 42°15' W 070°55'0 0.0
2018-Aug-12 00:28N 42°15' W 070°55'816.3
2018-Aug-12 00:00N 42°21' W 071°02'1 2.3
2018-Aug-11 23:30N 42°22' W 071°03'1122.8
2018-Aug-11 23:00N 42°18' W 070°48'1932.7
2018-Aug-11 22:25N 42°11' W 070°24'2 5.0
2018-Aug-11 22:00N 42°11' W 070°21'1 1.6
2018-Aug-11 21:27N 42°11' W 070°20'1 1.3
2018-Aug-11 20:52N 42°10' W 070°21'718.7
2018-Aug-11 20:30N 42°13' W 070°29'1631.9
2018-Aug-11 20:00N 42°18' W 070°49'1121.0
2018-Aug-11 19:30N 42°22' W 071°03'0 0.0
2018-Aug-11 19:00N 42°22' W 071°03'1 2.1
2018-Aug-11 18:30N 42°21' W 071°02'1730.4
2018-Aug-11 17:58N 42°16' W 070°40'1429.8
2018-Aug-11 17:30N 42°12' W 070°23'6 4.5
2018-Aug-11 16:05N 42°13' W 070°31'230.4
2018-Aug-11 16:00N 42°14' W 070°34'1529.9
2018-Aug-11 15:31N 42°19' W 070°53'815.8
2018-Aug-11 15:00N 42°22' W 071°03'1 1.3
2018-Aug-11 14:30N 42°22' W 071°02'0 0.3
2018-Aug-11 14:00N 42°22' W 071°02'714.1
2018-Aug-11 13:30N 42°16' W 070°56'1 1.9
2018-Aug-11 12:56N 42°15' W 070°55'0 0.0
2018-Aug-11 12:29N 42°15' W 070°55'1 0.1
2018-Aug-11 00:52N 42°16' W 070°55'822.0
2018-Aug-11 00:30N 42°21' W 071°03'2 4.5
2018-Aug-11 00:01N 42°20' W 071°00'612.3
2018-Aug-10 23:30N 42°15' W 070°55'817.1
2018-Aug-10 23:01N 42°21' W 071°03'1 2.6
2018-Aug-10 22:30N 42°21' W 071°01'714.4
2018-Aug-10 22:00N 42°15' W 070°55'613.0
2018-Aug-10 21:30N 42°20' W 071°00'2 4.0
2018-Aug-10 21:00N 42°21' W 071°03'0 0.6
2018-Aug-10 20:30N 42°22' W 071°03'0 0.1
2018-Aug-10 20:01N 42°22' W 071°03'0 0.0
2018-Aug-10 19:30N 42°22' W 071°03'1120.5
2018-Aug-10 18:59N 42°26' W 070°50'1429.8
2018-Aug-10 18:30N 42°35' W 070°35'714.0
2018-Aug-10 18:00N 42°40' W 070°28'815.9
2018-Aug-10 17:30N 42°32' W 070°29'1122.2
2018-Aug-10 17:00N 42°22' W 070°36'1224.3
2018-Aug-10 16:30N 42°19' W 070°52'817.0
2018-Aug-10 16:00N 42°22' W 071°03'0 0.2
2018-Aug-10 15:30N 42°22' W 071°03'0 0.8
2018-Aug-10 15:01N 42°22' W 071°02'0 0.9
2018-Aug-10 14:30N 42°22' W 071°03'0 0.1
2018-Aug-10 14:00N 42°22' W 071°03'4 9.0
2018-Aug-10 13:31N 42°18' W 070°59'4 8.1
2018-Aug-10 13:01N 42°15' W 070°55'816.4
2018-Aug-10 12:30N 42°21' W 071°03'5 9.6
2018-Aug-10 12:00N 42°18' W 070°58'4 6.5
2018-Aug-10 11:27N 42°15' W 070°55'511.9
2018-Aug-10 11:00N 42°19' W 070°60'3 6.5
2018-Aug-10 10:30N 42°21' W 071°03'816.7
2018-Aug-10 10:00N 42°15' W 070°55'0 0.0
2018-Aug-10 01:02N 42°15' W 070°55'0 6.7
2018-Aug-10 01:00N 42°16' W 070°55'816.6
2018-Aug-10 00:30N 42°21' W 071°03'2 4.5
2018-Aug-10 00:00N 42°20' W 071°00'612.6
2018-Aug-09 23:30N 42°15' W 070°55'816.9
2018-Aug-09 23:00N 42°21' W 071°03'2 4.0
2018-Aug-09 22:31N 42°21' W 071°01'710.8
2018-Aug-09 21:54N 42°15' W 070°55'615.5
2018-Aug-09 21:30N 42°20' W 071°00'2 4.5
2018-Aug-09 21:00N 42°21' W 071°03'0 0.9
2018-Aug-09 20:30N 42°22' W 071°02'0 0.2
2018-Aug-09 20:01N 42°22' W 071°02'0 0.5
2018-Aug-09 19:30N 42°22' W 071°03'1326.1
2018-Aug-09 19:00N 42°18' W 070°46'1926.5
2018-Aug-09 18:18N 42°12' W 070°22'2 2.1
2018-Aug-09 17:29N 42°12' W 070°24'  

Dump ship's entire track history